Time;durP1;ratioP1;P1;durP2;ratioP2;P2;SDS_P1;SDS_P2;PMS_P1;PMS_P2;Temp;Humidity;BMP_temperature;BMP_pressure;BME280_temperature;BME280_humidity;BME280_pressure;Samples;Min_cycle;Max_cycle;Signal;HPM_P1;HPM_P2
2022/01/22 00:00:05;;;;;;;3.83;1.10;;;;;;;;;;5094268;28;20077;-67
2022/01/22 00:02:31;;;;;;;5.28;1.50;;;;;;;;;;5094228;28;20051;-68
2022/01/22 00:04:57;;;;;;;3.85;1.40;;;;;;;;;;5094142;28;20089;-68
2022/01/22 00:07:23;;;;;;;4.80;1.15;;;;;;;;;;5093964;28;20050;-69
2022/01/22 00:09:52;;;;;;;4.20;1.20;;;;;;;;;;5092718;28;20032;-70
2022/01/22 00:15:18;;;;;;;2.83;0.80;;;;;;;;;;5081802;28;20032;-69
2022/01/22 00:17:45;;;;;;;2.55;0.82;;;;;;;;;;5093063;28;20118;-71
2022/01/22 00:20:12;;;;;;;2.55;1.00;;;;;;;;;;5092551;28;20060;-71
2022/01/22 00:22:39;;;;;;;3.97;0.80;;;;;;;;;;5092507;28;20400;-69
2022/01/22 00:25:08;;;;;;;3.22;0.70;;;;;;;;;;5092372;28;20032;-69
2022/01/22 00:27:35;;;;;;;3.63;0.95;;;;;;;;;;5092303;28;20086;-67
2022/01/22 00:30:01;;;;;;;3.15;0.55;;;;;;;;;;5094048;28;20028;-71
2022/01/22 00:32:27;;;;;;;3.85;0.70;;;;;;;;;;5093691;28;20024;-69
2022/01/22 00:34:53;;;;;;;6.90;0.90;;;;;;;;;;5093777;28;20032;-70
2022/01/22 00:37:19;;;;;;;2.63;0.60;;;;;;;;;;5092129;28;20028;-70
2022/01/22 00:39:45;;;;;;;4.03;0.77;;;;;;;;;;5093914;28;20477;-68
2022/01/22 00:42:14;;;;;;;2.15;0.65;;;;;;;;;;5092254;28;20473;-71
2022/01/22 00:44:40;;;;;;;3.33;0.68;;;;;;;;;;5092235;28;20093;-71
2022/01/22 00:47:07;;;;;;;2.10;0.50;;;;;;;;;;5092107;28;20028;-71
2022/01/22 00:49:34;;;;;;;1.38;0.50;;;;;;;;;;5092166;28;20477;-69
2022/01/22 00:52:00;;;;;;;2.45;0.60;;;;;;;;;;5091627;28;20392;-70
2022/01/22 00:54:27;;;;;;;6.57;0.68;;;;;;;;;;5092079;28;20042;-71
2022/01/22 00:56:53;;;;;;;2.13;0.52;;;;;;;;;;5092117;28;20032;-69
2022/01/22 00:59:19;;;;;;;3.70;0.85;;;;;;;;;;5093194;28;20484;-69
2022/01/22 01:01:45;;;;;;;1.75;0.60;;;;;;;;;;5092036;28;20377;-68
2022/01/22 01:04:12;;;;;;;0.98;0.45;;;;;;;;;;5092055;28;20035;-69
2022/01/22 01:06:39;;;;;;;2.20;0.60;;;;;;;;;;5092015;28;20021;-66
2022/01/22 01:09:07;;;;;;;1.33;0.38;;;;;;;;;;5091813;28;20412;-69
2022/01/22 01:11:37;;;;;;;3.55;0.55;;;;;;;;;;5091964;28;20024;-68
2022/01/22 01:14:07;;;;;;;2.30;0.50;;;;;;;;;;5091966;28;20530;-67
2022/01/22 01:35:17;;;;;;;1.67;0.60;;;;;;;;;;5092901;28;20024;-69
2022/01/22 01:37:44;;;;;;;1.35;0.40;;;;;;;;;;5092988;28;20040;-69
2022/01/22 01:40:12;;;;;;;4.10;0.50;;;;;;;;;;5091711;28;20511;-67
2022/01/22 01:45:13;;;;;;;2.53;0.57;;;;;;;;;;5093265;28;20468;-70
2022/01/22 01:47:43;;;;;;;1.88;0.55;;;;;;;;;;5091702;28;20026;-68
2022/01/22 01:50:09;;;;;;;3.33;0.70;;;;;;;;;;5091668;28;20128;-70
2022/01/22 01:52:49;;;;;;;1.77;0.57;;;;;;;;;;5091635;28;20468;-69
2022/01/22 01:55:20;;;;;;;4.05;0.70;;;;;;;;;;5091577;28;20038;-69
2022/01/22 01:57:46;;;;;;;1.58;0.57;;;;;;;;;;5091566;28;20114;-66
2022/01/22 02:00:39;;;;;;;3.08;0.55;;;;;;;;;;5092011;28;20028;-71
2022/01/22 02:03:05;;;;;;;2.03;0.50;;;;;;;;;;5090379;28;20079;-69
2022/01/22 02:05:34;;;;;;;2.55;0.80;;;;;;;;;;5095220;28;20488;-70
2022/01/22 02:08:00;;;;;;;1.83;1.05;;;;;;;;;;5095010;28;20020;-69
2022/01/22 02:10:30;;;;;;;2.67;1.00;;;;;;;;;;5095075;28;20023;-67
2022/01/22 02:13:41;;;;;;;2.42;0.98;;;;;;;;;;5096249;28;20024;-67
2022/01/22 02:24:00;;;;;;;3.42;1.40;;;;;;;;;;5095658;28;20075;-69
2022/01/22 02:26:28;;;;;;;3.67;1.13;;;;;;;;;;5094606;28;20046;-69
2022/01/22 02:28:54;;;;;;;5.22;1.45;;;;;;;;;;5094651;28;20032;-68
2022/01/22 02:31:31;;;;;;;2.67;1.23;;;;;;;;;;5095811;28;20031;-70
2022/01/22 02:36:35;;;;;;;3.58;1.40;;;;;;;;;;5095899;28;20027;-70
2022/01/22 02:39:16;;;;;;;6.20;1.65;;;;;;;;;;5094413;28;20028;-69
2022/01/22 02:41:43;;;;;;;5.40;1.50;;;;;;;;;;5094793;28;20027;-70
2022/01/22 02:44:21;;;;;;;3.40;1.70;;;;;;;;;;5094370;28;20042;-72
2022/01/22 02:46:50;;;;;;;8.25;2.05;;;;;;;;;;5094419;28;20026;-69
2022/01/22 02:49:16;;;;;;;4.78;1.75;;;;;;;;;;5094176;28;20057;-70
2022/01/22 02:51:42;;;;;;;5.38;1.77;;;;;;;;;;5095492;28;20055;-71
2022/01/22 02:54:08;;;;;;;4.60;1.73;;;;;;;;;;5094172;28;20442;-72
2022/01/22 02:56:34;;;;;;;4.40;1.80;;;;;;;;;;5094076;28;20028;-67
2022/01/22 02:59:00;;;;;;;4.68;1.90;;;;;;;;;;5093993;28;20040;-67
2022/01/22 03:01:27;;;;;;;3.67;1.65;;;;;;;;;;5094020;28;20024;-68
2022/01/22 03:03:53;;;;;;;4.45;1.90;;;;;;;;;;5094532;28;20032;-68
2022/01/22 03:06:19;;;;;;;5.35;1.90;;;;;;;;;;5095229;28;20020;-68
2022/01/22 03:08:47;;;;;;;4.43;2.10;;;;;;;;;;5093797;28;20024;-67
2022/01/22 03:11:19;;;;;;;5.25;2.10;;;;;;;;;;5095044;28;20012;-70
2022/01/22 03:16:33;;;;;;;4.65;2.40;;;;;;;;;;5095587;28;20465;-72
2022/01/22 03:19:06;;;;;;;4.38;2.38;;;;;;;;;;5093670;28;20032;-70
2022/01/22 03:21:39;;;;;;;;;;;;;;;;;;5094123;28;20047;-70
2022/01/22 03:29:38;;;;;;;6.47;3.40;;;;;;;;;;5095097;28;20069;-68
2022/01/22 03:32:05;;;;;;;9.27;3.85;;;;;;;;;;5093479;28;20020;-71
2022/01/22 03:34:37;;;;;;;8.75;3.97;;;;;;;;;;5094747;28;20472;-71
2022/01/22 03:37:03;;;;;;;9.15;3.80;;;;;;;;;;5094713;28;20544;-70
2022/01/22 03:39:29;;;;;;;6.60;3.40;;;;;;;;;;5093944;28;20044;-69
2022/01/22 03:41:55;;;;;;;7.72;3.67;;;;;;;;;;5093331;28;20027;-72
2022/01/22 03:44:22;;;;;;;6.80;3.65;;;;;;;;;;5093260;28;20073;-71
2022/01/22 03:46:48;;;;;;;8.40;3.22;;;;;;;;;;5093193;28;20166;-67
2022/01/22 03:49:16;;;;;;;6.72;3.38;;;;;;;;;;5093074;28;20028;-69
2022/01/22 03:51:42;;;;;;;5.65;2.83;;;;;;;;;;5093125;28;20051;-69
2022/01/22 03:54:09;;;;;;;4.95;2.63;;;;;;;;;;5093097;28;20104;-71
2022/01/22 03:56:35;;;;;;;6.50;2.85;;;;;;;;;;5092985;28;20024;-69
2022/01/22 03:59:02;;;;;;;5.47;2.42;;;;;;;;;;5094266;28;20370;-69
2022/01/22 04:04:12;;;;;;;4.35;2.47;;;;;;;;;;5094514;28;20050;-69
2022/01/22 04:09:11;;;;;;;3.25;1.83;;;;;;;;;;5093929;28;20032;-70
2022/01/22 04:11:40;;;;;;;4.88;2.30;;;;;;;;;;5094076;28;20024;-70
2022/01/22 04:14:14;;;;;;;3.72;1.90;;;;;;;;;;5092679;28;20362;-69
2022/01/22 04:17:02;;;;;;;4.82;2.33;;;;;;;;;;5094144;28;20028;-69
2022/01/22 04:24:57;;;;;;;4.05;1.80;;;;;;;;;;5093765;28;20549;-68
2022/01/22 04:27:26;;;;;;;4.35;2.13;;;;;;;;;;5091494;28;20052;-70
2022/01/22 04:29:54;;;;;;;4.38;2.20;;;;;;;;;;5092432;28;20020;-69
2022/01/22 04:32:20;;;;;;;4.07;1.98;;;;;;;;;;5092396;28;20366;-68
2022/01/22 04:34:47;;;;;;;3.42;1.77;;;;;;;;;;5092456;28;20111;-70
2022/01/22 04:37:13;;;;;;;4.00;2.00;;;;;;;;;;5092258;28;20362;-70
2022/01/22 04:39:39;;;;;;;3.90;1.90;;;;;;;;;;5092274;28;20488;-68
2022/01/22 04:42:06;;;;;;;4.00;1.60;;;;;;;;;;5092271;28;20020;-68
2022/01/22 04:44:37;;;;;;;3.28;1.60;;;;;;;;;;5092293;28;20027;-67
2022/01/22 04:55:02;;;;;;;2.47;1.48;;;;;;;;;;5093738;28;20081;-67
2022/01/22 04:57:29;;;;;;;3.92;1.65;;;;;;;;;;5092141;28;20024;-67
2022/01/22 04:59:55;;;;;;;2.85;1.48;;;;;;;;;;5092141;28;20160;-68
2022/01/22 05:02:22;;;;;;;3.13;1.60;;;;;;;;;;5092095;28;20027;-67
2022/01/22 05:04:48;;;;;;;2.95;1.40;;;;;;;;;;5092059;28;20026;-68
2022/01/22 05:07:14;;;;;;;3.17;1.50;;;;;;;;;;5093211;28;20413;-69
2022/01/22 05:09:40;;;;;;;2.20;1.23;;;;;;;;;;5093177;28;20070;-71
2022/01/22 05:12:07;;;;;;;2.63;1.45;;;;;;;;;;5091975;28;20104;-70
2022/01/22 05:14:33;;;;;;;4.35;1.50;;;;;;;;;;5091956;28;20027;-69
2022/01/22 05:17:01;;;;;;;2.90;1.38;;;;;;;;;;5091965;28;20388;-68
2022/01/22 05:19:46;;;;;;;3.10;1.30;;;;;;;;;;5091816;28;20040;-71
2022/01/22 05:24:46;;;;;;;6.68;2.45;;;;;;;;;;5093178;28;20069;-72
2022/01/22 05:32:28;;;;;;;2.55;0.98;;;;;;;;;;5093057;28;20028;-68
2022/01/22 05:37:38;;;;;;;2.50;1.05;;;;;;;;;;5094388;28;20038;-70
2022/01/22 05:40:05;;;;;;;1.85;0.90;;;;;;;;;;5096136;28;20028;-71
2022/01/22 05:42:31;;;;;;;1.80;0.90;;;;;;;;;;5095591;28;20020;-67
2022/01/22 05:44:57;;;;;;;3.53;0.90;;;;;;;;;;5095542;28;20038;-71
2022/01/22 05:47:26;;;;;;;2.15;1.00;;;;;;;;;;5095444;28;20024;-70
2022/01/22 05:49:54;;;;;;;1.88;0.90;;;;;;;;;;5095482;28;20024;-71
2022/01/22 05:52:30;;;;;;;2.63;1.23;;;;;;;;;;5095409;28;20032;-69
2022/01/22 06:00:27;;;;;;;2.67;0.95;;;;;;;;;;5096732;28;20090;-69
2022/01/22 06:02:53;;;;;;;2.13;1.00;;;;;;;;;;5095036;28;20020;-68
2022/01/22 06:05:20;;;;;;;2.35;0.93;;;;;;;;;;5095007;28;20032;-68
2022/01/22 06:07:46;;;;;;;2.55;1.02;;;;;;;;;;5096344;28;20020;-71
2022/01/22 06:10:17;;;;;;;1.88;1.00;;;;;;;;;;5095053;28;20119;-69
2022/01/22 06:13:33;;;;;;;2.80;1.25;;;;;;;;;;5095065;28;20469;-68
2022/01/22 06:15:29;;;;;;;2.05;0.98;;;;;;;;;;5092246;28;20043;-68
2022/01/22 06:17:56;;;;;;;2.78;0.90;;;;;;;;;;5094796;28;20034;-70
2022/01/22 06:20:22;;;;;;;1.90;0.90;;;;;;;;;;5096141;28;20058;-68
2022/01/22 06:22:48;;;;;;;1.92;1.00;;;;;;;;;;5094774;28;20067;-67
2022/01/22 06:25:14;;;;;;;3.00;1.02;;;;;;;;;;5094677;28;20444;-67
2022/01/22 06:27:40;;;;;;;2.40;1.13;;;;;;;;;;5099758;28;20500;-68
2022/01/22 06:30:06;;;;;;;2.03;0.98;;;;;;;;;;5114952;28;20020;-67
2022/01/22 06:32:32;;;;;;;2.42;0.98;;;;;;;;;;5114907;28;20066;-67
2022/01/22 06:34:59;;;;;;;2.28;0.88;;;;;;;;;;5116090;28;20016;-68
2022/01/22 06:37:25;;;;;;;2.28;1.08;;;;;;;;;;5114687;28;20023;-69
2022/01/22 06:41:44;;;;;;;2.85;1.30;;;;;;;;;;5116532;28;20039;-70
2022/01/22 06:42:49;;;;;;;2.58;1.10;;;;;;;;;;5115979;28;20465;-69
2022/01/22 06:45:15;;;;;;;2.50;1.20;;;;;;;;;;5114574;28;20035;-69
2022/01/22 06:47:41;;;;;;;2.83;1.00;;;;;;;;;;5114691;28;20365;-73
2022/01/22 06:50:08;;;;;;;2.13;1.02;;;;;;;;;;5113760;28;20034;-72
2022/01/22 06:52:34;;;;;;;1.70;0.98;;;;;;;;;;5116071;28;20120;-71
2022/01/22 06:55:00;;;;;;;2.45;0.90;;;;;;;;;;5114563;28;20027;-72
2022/01/22 06:57:26;;;;;;;2.80;1.08;;;;;;;;;;5114680;28;20026;-72
2022/01/22 06:59:52;;;;;;;4.00;2.50;;;;;;;;;;5114425;28;20035;-74
2022/01/22 07:02:20;;;;;;;5.10;3.05;;;;;;;;;;5115951;28;20099;-73
2022/01/22 07:04:46;;;;;;;3.22;1.90;;;;;;;;;;5115578;28;20106;-74
2022/01/22 07:07:13;;;;;;;3.90;2.10;;;;;;;;;;5114189;28;20019;-72
2022/01/22 07:09:39;;;;;;;5.68;3.10;;;;;;;;;;5098039;28;20115;-73
2022/01/22 07:12:05;;;;;;;5.18;2.80;;;;;;;;;;5095370;28;20016;-73
2022/01/22 07:14:31;;;;;;;3.60;2.08;;;;;;;;;;5095265;28;20032;-71
2022/01/22 07:16:58;;;;;;;5.00;3.30;;;;;;;;;;5093876;28;20052;-73
2022/01/22 07:19:24;;;;;;;4.65;3.17;;;;;;;;;;5093541;28;20048;-72
2022/01/22 07:22:06;;;;;;;3.30;2.00;;;;;;;;;;5093645;28;20027;-75
2022/01/22 07:24:40;;;;;;;3.15;1.77;;;;;;;;;;5095183;28;20056;-72
2022/01/22 07:27:06;;;;;;;4.93;2.40;;;;;;;;;;5093252;28;20395;-73
2022/01/22 07:29:33;;;;;;;6.30;2.88;;;;;;;;;;5093504;28;20028;-72
2022/01/22 07:32:01;;;;;;;4.38;2.20;;;;;;;;;;5093439;28;20051;-74
2022/01/22 07:34:27;;;;;;;3.13;2.25;;;;;;;;;;5093409;28;20024;-73
2022/01/22 07:36:53;;;;;;;5.47;3.30;;;;;;;;;;5093358;28;20368;-73
2022/01/22 07:39:19;;;;;;;4.68;2.42;;;;;;;;;;5093126;28;20032;-73
2022/01/22 07:41:46;;;;;;;4.07;2.78;;;;;;;;;;5093267;28;20016;-73
2022/01/22 07:44:12;;;;;;;4.93;2.90;;;;;;;;;;5093189;28;20054;-76
2022/01/22 07:46:38;;;;;;;4.57;2.42;;;;;;;;;;5093125;28;20437;-77
2022/01/22 07:49:06;;;;;;;4.97;3.00;;;;;;;;;;5093156;28;20434;-77
2022/01/22 07:51:32;;;;;;;4.32;2.33;;;;;;;;;;5093140;28;20027;-74
2022/01/22 07:54:00;;;;;;;5.82;3.40;;;;;;;;;;5094663;28;20107;-76
2022/01/22 07:56:26;;;;;;;4.45;2.70;;;;;;;;;;5094322;28;20020;-74
2022/01/22 07:58:53;;;;;;;5.65;3.17;;;;;;;;;;5076138;28;20443;-76
2022/01/22 08:01:19;;;;;;;4.90;2.97;;;;;;;;;;5092967;28;20024;-73
2022/01/22 08:03:45;;;;;;;6.18;3.60;;;;;;;;;;5093781;28;20036;-77
2022/01/22 08:06:11;;;;;;;5.55;3.28;;;;;;;;;;5094450;28;20369;-74
2022/01/22 08:08:37;;;;;;;4.63;2.88;;;;;;;;;;5092759;28;20115;-76
2022/01/22 08:11:03;;;;;;;4.82;3.30;;;;;;;;;;5092760;28;20028;-76
2022/01/22 08:13:30;;;;;;;3.83;2.08;;;;;;;;;;5094024;28;20519;-76
2022/01/22 08:15:56;;;;;;;4.20;2.97;;;;;;;;;;5092764;28;20051;-76
2022/01/22 08:18:22;;;;;;;6.85;4.55;;;;;;;;;;5092557;28;20036;-75
2022/01/22 08:20:48;;;;;;;4.05;2.40;;;;;;;;;;5092631;28;20626;-76
2022/01/22 08:23:14;;;;;;;3.50;1.48;;;;;;;;;;5092577;28;20127;-75
2022/01/22 08:25:45;;;;;;;3.35;1.27;;;;;;;;;;5092319;28;20020;-76
2022/01/22 08:31:03;;;;;;;9.68;3.92;;;;;;;;;;5093866;28;20032;-75
2022/01/22 08:35:52;;;;;;;7.05;3.35;;;;;;;;;;5092573;28;20401;-76
2022/01/22 08:36:18;;;;;;;2.78;1.60;;;;;;;;;;5093627;28;20020;-77
2022/01/22 08:38:44;;;;;;;2.65;1.58;;;;;;;;;;5093568;28;20122;-77
2022/01/22 08:41:10;;;;;;;4.25;2.20;;;;;;;;;;5093552;28;20039;-76
2022/01/22 08:43:37;;;;;;;4.28;2.72;;;;;;;;;;5075623;28;20560;-77
2022/01/22 08:46:03;;;;;;;5.07;1.98;;;;;;;;;;5093558;28;20020;-77
2022/01/22 08:48:29;;;;;;;2.60;1.50;;;;;;;;;;5092301;28;20023;-76
2022/01/22 08:50:56;;;;;;;3.15;1.90;;;;;;;;;;5092279;28;20028;-77
2022/01/22 08:53:22;;;;;;;4.05;1.58;;;;;;;;;;5092191;28;20028;-77
2022/01/22 08:55:48;;;;;;;2.75;1.40;;;;;;;;;;5092281;28;20028;-76
2022/01/22 08:58:14;;;;;;;2.80;1.50;;;;;;;;;;5093978;28;20468;-76
2022/01/22 09:00:40;;;;;;;3.20;1.40;;;;;;;;;;5093942;28;20099;-78
2022/01/22 09:03:07;;;;;;;3.35;1.85;;;;;;;;;;5092170;28;20492;-78
2022/01/22 09:05:35;;;;;;;3.17;1.77;;;;;;;;;;5093719;28;20046;-78
2022/01/22 09:08:03;;;;;;;3.00;1.40;;;;;;;;;;5092100;28;20031;-79
2022/01/22 09:10:29;;;;;;;2.55;1.20;;;;;;;;;;5093415;28;20052;-79
2022/01/22 09:12:56;;;;;;;2.67;1.20;;;;;;;;;;5095248;28;20027;-79
2022/01/22 09:15:22;;;;;;;2.33;1.13;;;;;;;;;;5097549;28;20089;-77
2022/01/22 09:17:49;;;;;;;2.08;0.88;;;;;;;;;;5097879;28;20024;-74
2022/01/22 09:20:31;;;;;;;2.75;0.85;;;;;;;;;;5097316;28;20038;-74
2022/01/22 09:22:59;;;;;;;2.90;0.98;;;;;;;;;;5097340;28;20024;-79
2022/01/22 09:25:25;;;;;;;1.40;0.47;;;;;;;;;;5096053;28;20110;-76
2022/01/22 09:27:52;;;;;;;3.20;1.10;;;;;;;;;;5097220;28;20036;-74
2022/01/22 09:30:18;;;;;;;1.75;0.70;;;;;;;;;;5097422;28;20027;-79
2022/01/22 09:32:44;;;;;;;1.65;0.90;;;;;;;;;;5097152;28;20028;-75
2022/01/22 09:35:11;;;;;;;1.80;0.88;;;;;;;;;;5097113;28;20020;-79
2022/01/22 09:37:37;;;;;;;2.50;1.10;;;;;;;;;;5097094;28;20034;-78
2022/01/22 09:40:04;;;;;;;1.40;0.80;;;;;;;;;;5096909;28;20036;-74
2022/01/22 09:42:30;;;;;;;2.22;0.98;;;;;;;;;;5095653;28;20035;-75
2022/01/22 09:44:57;;;;;;;1.83;0.90;;;;;;;;;;5097721;28;20028;-74
2022/01/22 09:47:23;;;;;;;2.53;0.80;;;;;;;;;;5097379;28;20452;-78
2022/01/22 09:49:50;;;;;;;2.92;0.85;;;;;;;;;;5096835;28;20020;-79
2022/01/22 09:52:16;;;;;;;2.63;0.80;;;;;;;;;;5097277;28;20035;-77
2022/01/22 09:54:43;;;;;;;3.63;1.00;;;;;;;;;;5096799;28;20099;-79
2022/01/22 09:57:10;;;;;;;2.38;1.05;;;;;;;;;;5095441;28;20056;-79
2022/01/22 09:59:37;;;;;;;1.55;0.73;;;;;;;;;;5095268;28;20039;-78
2022/01/22 10:02:19;;;;;;;1.83;0.90;;;;;;;;;;5096575;28;20468;-79
2022/01/22 10:04:48;;;;;;;2.40;1.20;;;;;;;;;;5095276;28;20400;-79
2022/01/22 10:07:24;;;;;;;2.13;1.05;;;;;;;;;;5095233;28;20127;-74
2022/01/22 10:09:56;;;;;;;2.95;1.25;;;;;;;;;;5095232;28;20020;-74
2022/01/22 10:12:23;;;;;;;3.85;1.23;;;;;;;;;;5096975;28;20024;-78
2022/01/22 10:15:08;;;;;;;1.92;1.10;;;;;;;;;;5096326;28;20059;-77
2022/01/22 10:17:45;;;;;;;1.80;0.93;;;;;;;;;;5095013;28;20032;-74
2022/01/22 10:20:32;;;;;;;4.30;1.48;;;;;;;;;;5094946;28;20032;-74
2022/01/22 10:23:02;;;;;;;3.38;1.33;;;;;;;;;;5094911;28;20026;-75
2022/01/22 10:25:38;;;;;;;2.75;1.30;;;;;;;;;;5093561;28;20021;-77
2022/01/22 10:28:06;;;;;;;2.00;0.95;;;;;;;;;;5096073;28;20032;-74
2022/01/22 10:30:42;;;;;;;2.20;1.10;;;;;;;;;;5096045;28;20099;-74
2022/01/22 10:33:36;;;;;;;3.40;1.13;;;;;;;;;;5096613;28;20035;-78
2022/01/22 10:36:20;;;;;;;1.85;0.80;;;;;;;;;;5095801;28;20028;-79
2022/01/22 10:38:55;;;;;;;2.40;0.90;;;;;;;;;;5094556;28;20043;-79
2022/01/22 10:41:36;;;;;;;1.98;0.80;;;;;;;;;;5094680;28;20020;-79
2022/01/22 10:44:04;;;;;;;2.42;1.15;;;;;;;;;;5094550;28;20039;-79
2022/01/22 10:49:13;;;;;;;2.23;1.20;;;;;;;;;;5095752;28;20028;-73
2022/01/22 10:51:50;;;;;;;3.13;1.02;;;;;;;;;;5094291;28;20063;-74
2022/01/22 10:54:17;;;;;;;2.35;0.93;;;;;;;;;;5094246;28;20020;-76
2022/01/22 10:56:45;;;;;;;2.00;0.90;;;;;;;;;;5095789;28;20028;-79
2022/01/22 10:59:12;;;;;;;4.82;0.90;;;;;;;;;;5095438;28;20385;-79
2022/01/22 11:01:44;;;;;;;1.90;0.77;;;;;;;;;;5095358;28;20110;-74
2022/01/22 11:04:15;;;;;;;2.38;1.00;;;;;;;;;;5094128;28;20038;-74
2022/01/22 11:06:46;;;;;;;2.67;0.82;;;;;;;;;;5094090;28;20024;-79
2022/01/22 11:09:13;;;;;;;1.92;0.70;;;;;;;;;;5095642;28;20445;-78
2022/01/22 11:11:41;;;;;;;1.35;0.63;;;;;;;;;;5093923;28;20495;-74
2022/01/22 11:14:08;;;;;;;4.35;1.08;;;;;;;;;;5093989;28;20058;-78
2022/01/22 11:16:35;;;;;;;2.05;0.82;;;;;;;;;;5095190;28;20023;-73
2022/01/22 11:19:02;;;;;;;2.03;1.15;;;;;;;;;;5095051;28;20028;-79
2022/01/22 11:21:29;;;;;;;4.03;2.47;;;;;;;;;;5095799;28;20028;-77
2022/01/22 11:23:55;;;;;;;7.30;3.10;;;;;;;;;;5093512;28;20020;-78
2022/01/22 11:26:22;;;;;;;6.07;2.33;;;;;;;;;;5093540;28;20435;-76
2022/01/22 11:28:50;;;;;;;16.63;6.57;;;;;;;;;;5093667;28;20081;-79
2022/01/22 11:31:17;;;;;;;6.35;2.80;;;;;;;;;;5094441;28;20376;-80
2022/01/22 11:33:45;;;;;;;4.35;1.55;;;;;;;;;;5095444;28;20028;-78
2022/01/22 11:36:14;;;;;;;5.13;2.10;;;;;;;;;;5094983;28;20038;-79
2022/01/22 11:38:41;;;;;;;11.00;4.20;;;;;;;;;;5093425;28;20118;-80
2022/01/22 11:41:19;;;;;;;3.03;1.38;;;;;;;;;;5093450;28;20054;-78
2022/01/22 11:43:52;;;;;;;22.80;10.52;;;;;;;;;;5095248;28;20028;-79
2022/01/22 11:46:32;;;;;;;2.72;1.27;;;;;;;;;;5094303;28;20020;-78
2022/01/22 11:49:18;;;;;;;5.70;2.72;;;;;;;;;;5092878;28;20477;-78
2022/01/22 11:51:46;;;;;;;3.40;1.75;;;;;;;;;;5079389;28;20033;-78
2022/01/22 11:54:12;;;;;;;3.50;1.42;;;;;;;;;;5093258;28;20484;-77
2022/01/22 11:56:46;;;;;;;6.93;3.30;;;;;;;;;;5093180;28;20118;-78
2022/01/22 11:59:13;;;;;;;3.78;1.77;;;;;;;;;;5093071;28;20506;-79
2022/01/22 12:04:16;;;;;;;2.97;1.33;;;;;;;;;;5094325;28;20024;-74
2022/01/22 12:07:01;;;;;;;4.65;1.45;;;;;;;;;;5094796;28;20085;-80
2022/01/22 12:09:31;;;;;;;2.53;1.23;;;;;;;;;;5092864;28;20403;-77
2022/01/22 12:15:02;;;;;;;3.42;1.65;;;;;;;;;;5094427;28;20519;-78
2022/01/22 12:17:55;;;;;;;6.00;2.17;;;;;;;;;;5092773;28;20024;-79
2022/01/22 12:23:09;;;;;;;4.00;2.28;;;;;;;;;;5093968;28;20181;-77
2022/01/22 12:25:35;;;;;;;3.70;1.65;;;;;;;;;;5092473;28;20418;-78
2022/01/22 12:28:02;;;;;;;4.63;2.28;;;;;;;;;;5092462;28;20028;-74
2022/01/22 12:30:34;;;;;;;3.53;1.48;;;;;;;;;;5092198;28;20024;-76
2022/01/22 12:33:01;;;;;;;3.20;1.42;;;;;;;;;;5092129;28;20103;-76
2022/01/22 12:35:34;;;;;;;6.18;2.50;;;;;;;;;;5094368;28;20028;-76
2022/01/22 12:38:02;;;;;;;;;;;;;;;;;;5092725;28;20020;-78
2022/01/22 12:40:32;;;;;;;3.28;1.65;;;;;;;;;;5093809;28;19904;-80
2022/01/22 12:43:06;;;;;;;4.82;1.58;;;;;;;;;;5093729;28;20016;-80
2022/01/22 12:45:34;;;;;;;3.40;1.48;;;;;;;;;;5092418;28;20392;-79
2022/01/22 12:48:01;;;;;;;2.85;1.50;;;;;;;;;;5092998;28;20025;-79
2022/01/22 12:50:30;;;;;;;3.03;1.23;;;;;;;;;;5092361;28;20028;-79
2022/01/22 12:53:02;;;;;;;4.25;1.80;;;;;;;;;;5094109;28;20100;-78
2022/01/22 12:55:49;;;;;;;3.30;1.60;;;;;;;;;;5093542;28;20129;-78
2022/01/22 12:58:27;;;;;;;4.80;1.80;;;;;;;;;;5093569;28;20047;-77
2022/01/22 13:01:14;;;;;;;4.80;1.90;;;;;;;;;;5092238;28;20447;-79
2022/01/22 13:03:45;;;;;;;4.15;1.90;;;;;;;;;;5092169;28;20074;-77
2022/01/22 13:06:11;;;;;;;4.18;1.92;;;;;;;;;;5092182;28;20039;-79
2022/01/22 13:08:38;;;;;;;4.43;1.80;;;;;;;;;;5092137;28;20028;-79
2022/01/22 13:11:07;;;;;;;3.67;1.85;;;;;;;;;;5093856;28;20028;-73
2022/01/22 13:13:34;;;;;;;4.47;2.33;;;;;;;;;;5092077;28;20036;-76
2022/01/22 13:16:06;;;;;;;3.97;2.15;;;;;;;;;;5093348;28;20024;-77
2022/01/22 13:18:39;;;;;;;3.30;1.55;;;;;;;;;;5091995;28;20020;-79
2022/01/22 13:21:07;;;;;;;5.18;2.50;;;;;;;;;;5093349;28;20568;-78
2022/01/22 13:23:34;;;;;;;2.92;1.70;;;;;;;;;;5091991;28;20032;-79
2022/01/22 13:26:01;;;;;;;3.75;2.00;;;;;;;;;;5091671;28;20378;-77
2022/01/22 13:28:34;;;;;;;4.00;1.95;;;;;;;;;;5093242;28;20024;-77
2022/01/22 13:31:09;;;;;;;7.50;3.20;;;;;;;;;;5093758;28;20115;-70
2022/01/22 13:33:46;;;;;;;7.43;2.20;;;;;;;;;;5075230;28;20488;-79
2022/01/22 13:36:24;;;;;;;5.97;1.45;;;;;;;;;;5093227;28;20519;-80
2022/01/22 13:49:49;;;;;;;4.28;1.58;;;;;;;;;;5093678;28;20531;-78
2022/01/22 13:52:16;;;;;;;4.25;1.38;;;;;;;;;;5093095;28;20028;-77
2022/01/22 13:54:49;;;;;;;3.22;1.40;;;;;;;;;;5093570;28;20028;-78
2022/01/22 13:57:17;;;;;;;6.25;1.60;;;;;;;;;;5091742;28;20036;-77
2022/01/22 13:59:44;;;;;;;3.15;1.27;;;;;;;;;;5096171;28;20424;-78
2022/01/22 14:02:33;;;;;;;3.85;1.75;;;;;;;;;;5095354;28;20434;-77
2022/01/22 14:05:07;;;;;;;3.17;1.30;;;;;;;;;;5096697;28;20020;-77
2022/01/22 14:07:44;;;;;;;4.00;1.45;;;;;;;;;;5096475;28;20071;-78
2022/01/22 14:10:21;;;;;;;3.58;1.45;;;;;;;;;;5095170;28;20381;-79
2022/01/22 14:13:29;;;;;;;4.45;1.73;;;;;;;;;;5096438;28;20024;-78
2022/01/22 14:15:40;;;;;;;3.22;1.73;;;;;;;;;;5090555;28;20111;-77
2022/01/22 14:18:27;;;;;;;3.75;1.90;;;;;;;;;;5095050;28;20035;-78
2022/01/22 14:21:08;;;;;;;4.50;1.85;;;;;;;;;;5096872;28;20508;-77
2022/01/22 14:23:35;;;;;;;3.97;1.73;;;;;;;;;;5095084;28;20028;-76
2022/01/22 14:26:05;;;;;;;4.28;1.98;;;;;;;;;;5096125;28;20040;-78
2022/01/22 14:28:52;;;;;;;5.30;1.90;;;;;;;;;;5094897;28;20416;-77
2022/01/22 14:31:19;;;;;;;4.53;1.50;;;;;;;;;;5095928;28;20472;-77
2022/01/22 14:33:45;;;;;;;4.60;1.92;;;;;;;;;;5094708;28;20069;-77
2022/01/22 14:36:15;;;;;;;5.00;2.03;;;;;;;;;;5094736;28;20028;-77
2022/01/22 14:38:50;;;;;;;5.00;1.67;;;;;;;;;;5094606;28;20032;-77
2022/01/22 14:46:55;;;;;;;5.00;1.52;;;;;;;;;;5095829;28;20020;-78
2022/01/22 14:49:26;;;;;;;6.25;1.60;;;;;;;;;;5094470;28;20024;-79
2022/01/22 14:51:52;;;;;;;4.20;1.67;;;;;;;;;;5094435;28;20115;-72
2022/01/22 14:54:22;;;;;;;4.28;1.50;;;;;;;;;;5095584;28;20032;-80
2022/01/22 14:56:48;;;;;;;3.38;1.20;;;;;;;;;;5095519;28;20113;-78
2022/01/22 14:59:15;;;;;;;3.63;1.38;;;;;;;;;;5095435;28;20043;-80
2022/01/22 15:01:41;;;;;;;3.40;1.70;;;;;;;;;;5091190;28;20459;-72
2022/01/22 15:04:07;;;;;;;4.95;1.55;;;;;;;;;;5095193;28;20024;-72
2022/01/22 15:06:33;;;;;;;3.05;1.30;;;;;;;;;;5095093;28;20028;-73
2022/01/22 15:08:59;;;;;;;3.08;1.27;;;;;;;;;;5095523;28;20032;-73
2022/01/22 15:11:25;;;;;;;3.38;1.65;;;;;;;;;;5093254;28;20027;-76
2022/01/22 15:13:51;;;;;;;4.13;1.08;;;;;;;;;;5093826;28;20078;-74
2022/01/22 15:16:19;;;;;;;4.78;1.30;;;;;;;;;;5093781;28;20062;-77
2022/01/22 15:19:00;;;;;;;3.70;1.63;;;;;;;;;;5093442;28;20115;-77
2022/01/22 15:21:26;;;;;;;3.35;1.42;;;;;;;;;;5093698;28;20027;-77
2022/01/22 15:23:52;;;;;;;4.35;1.48;;;;;;;;;;5093643;28;20423;-76
2022/01/22 15:26:19;;;;;;;4.97;1.70;;;;;;;;;;5094841;28;20044;-80
2022/01/22 15:28:46;;;;;;;4.03;1.88;;;;;;;;;;5093480;28;20039;-77
2022/01/22 15:31:36;;;;;;;3.22;1.30;;;;;;;;;;5093490;28;20035;-76
2022/01/22 15:34:25;;;;;;;5.00;2.17;;;;;;;;;;5094302;28;20039;-77
2022/01/22 15:36:52;;;;;;;8.48;1.77;;;;;;;;;;5093361;28;20028;-76
2022/01/22 15:39:19;;;;;;;5.60;1.95;;;;;;;;;;5094561;28;20123;-76
2022/01/22 15:41:45;;;;;;;5.85;2.50;;;;;;;;;;5093390;28;20028;-75
2022/01/22 15:44:11;;;;;;;4.97;2.30;;;;;;;;;;5093301;28;20028;-78
2022/01/22 15:46:38;;;;;;;6.68;2.63;;;;;;;;;;5093319;28;20035;-77
2022/01/22 15:49:08;;;;;;;10.00;3.80;;;;;;;;;;5093413;28;20036;-75
2022/01/22 15:51:34;;;;;;;7.53;3.10;;;;;;;;;;5093154;28;20024;-77
2022/01/22 15:54:00;;;;;;;5.28;1.92;;;;;;;;;;5094631;28;20028;-75
2022/01/22 15:56:26;;;;;;;4.85;2.08;;;;;;;;;;5094433;28;20358;-76
2022/01/22 15:58:52;;;;;;;4.95;1.90;;;;;;;;;;5092883;28;20036;-75
2022/01/22 16:01:18;;;;;;;6.60;2.40;;;;;;;;;;5094175;28;20045;-77
2022/01/22 16:03:47;;;;;;;5.47;2.28;;;;;;;;;;5094191;28;20089;-73
2022/01/22 16:06:19;;;;;;;7.13;2.80;;;;;;;;;;5092684;28;20044;-78
2022/01/22 16:08:46;;;;;;;8.07;2.85;;;;;;;;;;5092842;28;20028;-76
2022/01/22 16:11:13;;;;;;;6.05;2.30;;;;;;;;;;5092787;28;20074;-77
2022/01/22 16:13:41;;;;;;;9.05;2.80;;;;;;;;;;5075948;28;20067;-79
2022/01/22 16:16:07;;;;;;;7.65;2.38;;;;;;;;;;5094098;28;20021;-79
2022/01/22 16:18:34;;;;;;;9.38;4.70;;;;;;;;;;5092542;28;20085;-77
2022/01/22 16:21:00;;;;;;;7.97;2.67;;;;;;;;;;5093717;28;20457;-78
2022/01/22 16:23:27;;;;;;;7.13;2.88;;;;;;;;;;5091868;28;20031;-79
2022/01/22 16:25:53;;;;;;;8.30;3.40;;;;;;;;;;5092359;28;20052;-79
2022/01/22 16:28:21;;;;;;;12.60;5.10;;;;;;;;;;5092843;28;20077;-79
2022/01/22 16:30:47;;;;;;;16.60;4.60;;;;;;;;;;5092616;28;20027;-76
2022/01/22 16:33:14;;;;;;;13.48;4.50;;;;;;;;;;5094445;28;20024;-77
2022/01/22 16:35:41;;;;;;;23.80;6.05;;;;;;;;;;5092482;28;20024;-77
2022/01/22 16:38:08;;;;;;;16.92;4.82;;;;;;;;;;5092549;28;20162;-79
2022/01/22 16:40:34;;;;;;;14.43;5.22;;;;;;;;;;5092499;28;20391;-79
2022/01/22 16:43:05;;;;;;;5.85;2.72;;;;;;;;;;5092473;28;20388;-72